createdAt,value
2023-01-01T00:01:24.511Z,71.37
2023-01-01T00:03:54.973Z,71.60
2023-01-01T00:06:24.049Z,71.78
2023-01-01T00:09:11.910Z,71.80
2023-01-01T00:11:39.890Z,71.90
2023-01-01T00:14:12.315Z,71.87
2023-01-01T00:16:40.633Z,71.82
2023-01-01T00:19:08.647Z,71.90
2023-01-01T00:21:36.582Z,72.07
2023-01-01T00:24:05.219Z,72.11
2023-01-01T00:26:35.546Z,71.98
2023-01-01T00:29:05.016Z,71.94
2023-01-01T00:31:33.002Z,71.91
2023-01-01T00:34:00.999Z,71.83
2023-01-01T00:36:30.155Z,71.66
2023-01-01T00:38:58.352Z,71.68
2023-01-01T00:41:26.232Z,71.62
2023-01-01T00:43:54.172Z,71.59
2023-01-01T00:46:22.140Z,71.51
2023-01-01T00:48:50.012Z,71.34
2023-01-01T00:51:17.923Z,71.02
2023-01-01T00:53:45.826Z,70.98
2023-01-01T00:56:13.754Z,71.03
2023-01-01T00:58:41.636Z,70.80
2023-01-01T01:01:09.717Z,70.75
2023-01-01T01:03:39.557Z,70.78
2023-01-01T01:06:09.814Z,70.55
2023-01-01T01:08:41.232Z,70.39
2023-01-01T01:11:16.262Z,70.20
2023-01-01T01:13:47.819Z,69.85
2023-01-01T01:16:24.739Z,69.59
2023-01-01T01:18:56.041Z,69.36
2023-01-01T01:21:24.563Z,69.11
2023-01-01T01:23:54.117Z,68.78
2023-01-01T01:26:28.731Z,68.49
2023-01-01T01:28:57.838Z,68.33
2023-01-01T01:31:30.859Z,68.35
2023-01-01T01:33:59.037Z,68.24
2023-01-01T01:36:28.601Z,68.01
2023-01-01T01:38:56.918Z,67.91
2023-01-01T01:41:28.671Z,67.65
2023-01-01T01:44:04.583Z,67.64
2023-01-01T01:46:44.449Z,67.35
2023-01-01T01:49:24.584Z,67.24
2023-01-01T01:51:53.562Z,67.27
2023-01-01T01:54:27.101Z,67.15
2023-01-01T01:57:09.481Z,67.17
2023-01-01T01:59:47.641Z,67.21
2023-01-01T02:02:48.250Z,67.16
2023-01-01T02:05:19.360Z,67.11
2023-01-01T02:07:47.540Z,67.25
2023-01-01T02:10:15.406Z,67.29
2023-01-01T02:12:43.372Z,67.45
2023-01-01T02:15:11.448Z,67.25
2023-01-01T02:18:21.234Z,67.47
2023-01-01T02:20:59.447Z,67.40
2023-01-01T02:23:50.826Z,67.24
2023-01-01T02:26:40.459Z,67.25
2023-01-01T02:29:08.260Z,67.06
2023-01-01T02:31:44.052Z,66.87
2023-01-01T02:34:17.158Z,66.93
2023-01-01T02:36:51.756Z,66.72
2023-01-01T02:39:25.123Z,66.45
2023-01-01T02:41:56.279Z,66.27
2023-01-01T02:44:28.263Z,66.19
2023-01-01T02:46:56.121Z,66.14
2023-01-01T02:49:26.335Z,65.91
2023-01-01T02:52:12.510Z,65.82
2023-01-01T02:55:08.315Z,65.62
2023-01-01T02:57:51.122Z,65.67
2023-01-01T03:00:31.241Z,65.57
2023-01-01T03:03:40.859Z,65.36
2023-01-01T03:06:26.908Z,65.31
2023-01-01T03:09:35.501Z,65.18
2023-01-01T03:12:39.698Z,65.15
2023-01-01T03:15:52.230Z,65.20
2023-01-01T03:18:41.643Z,64.93
2023-01-01T03:23:49.755Z,64.84
2023-01-01T03:26:20.977Z,64.86
2023-01-01T03:28:58.951Z,65.02
2023-01-01T03:31:27.053Z,65.00
2023-01-01T03:34:07.125Z,65.08
2023-01-01T03:36:41.369Z,65.03
2023-01-01T03:39:17.944Z,65.15
2023-01-01T03:42:02.882Z,65.16
2023-01-01T03:44:56.527Z,65.10
2023-01-01T03:47:24.775Z,65.31
2023-01-01T03:49:52.798Z,65.31
2023-01-01T03:52:39.119Z,65.20
2023-01-01T03:55:24.283Z,65.24
2023-01-01T03:58:24.430Z,65.21
2023-01-01T04:01:08.958Z,65.11
2023-01-01T04:03:38.822Z,65.19
2023-01-01T04:06:07.774Z,65.02
2023-01-01T04:08:36.066Z,64.73
2023-01-01T04:11:36.801Z,64.66
2023-01-01T04:14:04.678Z,64.64
2023-01-01T04:16:33.347Z,64.77
2023-01-01T04:19:01.470Z,64.85
2023-01-01T04:21:29.341Z,64.84
2023-01-01T04:23:57.247Z,64.94
2023-01-01T04:26:25.171Z,65.03
2023-01-01T04:28:53.068Z,65.30
2023-01-01T04:31:20.908Z,65.57
2023-01-01T04:33:53.699Z,65.71
2023-01-01T04:36:21.522Z,65.77
2023-01-01T04:38:49.467Z,65.88
2023-01-01T04:41:17.501Z,66.19
2023-01-01T04:43:50.524Z,66.45
2023-01-01T04:46:21.117Z,66.52
2023-01-01T04:48:49.586Z,66.88
2023-01-01T04:51:21.124Z,67.02
2023-01-01T04:53:49.111Z,67.06
2023-01-01T04:56:21.718Z,67.18
2023-01-01T04:58:50.145Z,67.24
2023-01-01T05:01:24.627Z,67.28
2023-01-01T05:03:53.688Z,67.37
2023-01-01T05:06:22.404Z,67.32
2023-01-01T05:08:54.465Z,67.22
2023-01-01T05:11:28.823Z,67.41
2023-01-01T05:14:00.567Z,67.37
2023-01-01T05:16:32.606Z,67.31
2023-01-01T05:19:00.975Z,67.43
2023-01-01T05:21:32.700Z,67.42
2023-01-01T05:24:04.180Z,67.38
2023-01-01T05:26:35.525Z,67.37
2023-01-01T05:29:08.946Z,67.43
2023-01-01T05:31:41.728Z,67.46
2023-01-01T05:34:09.679Z,67.34
2023-01-01T05:36:38.969Z,66.74
2023-01-01T05:39:10.467Z,66.55
2023-01-01T05:41:39.029Z,66.02
2023-01-01T05:44:09.696Z,65.77
2023-01-01T05:46:37.770Z,65.55
2023-01-01T05:49:05.684Z,65.17
2023-01-01T05:54:01.453Z,64.52
2023-01-01T05:56:29.476Z,64.09
2023-01-01T05:58:57.628Z,64.02
2023-01-01T06:01:31.145Z,63.77
2023-01-01T06:04:00.532Z,63.58
2023-01-01T06:06:33.038Z,63.56
2023-01-01T06:09:04.457Z,63.49
2023-01-01T06:11:33.329Z,63.23
2023-01-01T06:14:02.061Z,62.89
2023-01-01T06:16:31.704Z,62.58
2023-01-01T06:18:59.886Z,62.14
2023-01-01T06:21:29.566Z,61.81
2023-01-01T06:23:59.760Z,61.61
2023-01-01T06:26:32.467Z,61.35
2023-01-01T06:29:02.963Z,61.13
2023-01-01T06:31:35.564Z,61.01
2023-01-01T06:34:06.453Z,60.80
2023-01-01T06:36:34.435Z,60.64
2023-01-01T06:39:03.600Z,60.29
2023-01-01T06:41:31.772Z,60.30
2023-01-01T06:44:01.995Z,60.10
2023-01-01T06:46:35.705Z,59.89
2023-01-01T06:49:07.579Z,59.68
2023-01-01T06:51:42.124Z,59.67
2023-01-01T06:54:11.458Z,59.60
2023-01-01T06:56:39.748Z,59.40
2023-01-01T06:59:07.674Z,59.26
2023-01-01T07:01:37.768Z,59.30
2023-01-01T07:04:11.569Z,59.27
2023-01-01T07:06:39.814Z,59.08
2023-01-01T07:09:08.735Z,59.06
2023-01-01T07:11:36.917Z,58.70
2023-01-01T07:14:04.921Z,58.66
2023-01-01T07:16:32.998Z,58.74
2023-01-01T07:19:01.341Z,58.69
2023-01-01T07:21:45.266Z,58.65
2023-01-01T07:24:15.972Z,58.57
2023-01-01T07:26:44.880Z,58.32
2023-01-01T07:29:13.497Z,58.21
2023-01-01T07:31:44.227Z,58.10
2023-01-01T07:34:19.728Z,57.91
2023-01-01T07:36:47.690Z,57.64
2023-01-01T07:39:15.627Z,57.59
2023-01-01T07:41:43.522Z,57.25
2023-01-01T07:44:15.493Z,57.22
2023-01-01T07:46:44.698Z,56.95
2023-01-01T07:49:12.574Z,57.04
2023-01-01T07:51:40.469Z,56.79
2023-01-01T07:54:08.336Z,56.53
2023-01-01T07:56:36.436Z,56.36
2023-01-01T07:59:05.474Z,56.20
2023-01-01T08:01:37.439Z,56.15
2023-01-01T08:04:05.759Z,56.00
2023-01-01T08:06:33.738Z,55.99
2023-01-01T08:09:01.628Z,55.88
2023-01-01T08:11:29.722Z,55.73
2023-01-01T08:13:57.709Z,55.67
2023-01-01T08:16:25.681Z,55.62
2023-01-01T08:18:53.732Z,55.28
2023-01-01T08:21:21.627Z,55.12
2023-01-01T08:23:49.478Z,55.03
2023-01-01T08:26:31.337Z,54.91
2023-01-01T08:29:04.223Z,54.85
2023-01-01T08:31:33.246Z,54.57
2023-01-01T08:34:01.124Z,54.56
2023-01-01T08:36:29.034Z,54.52
2023-01-01T08:38:57.763Z,54.23
2023-01-01T08:41:25.627Z,54.01
2023-01-01T08:43:53.725Z,54.00
2023-01-01T08:46:21.745Z,54.06
2023-01-01T08:48:49.747Z,53.86
2023-01-01T08:51:18.432Z,53.81
2023-01-01T08:53:50.935Z,53.71
2023-01-01T08:56:20.492Z,53.71
2023-01-01T08:58:49.160Z,53.67
2023-01-01T09:01:17.585Z,53.88
2023-01-01T09:03:45.519Z,53.82
2023-01-01T09:06:14.295Z,53.86
2023-01-01T09:08:42.134Z,53.75
2023-01-01T09:11:39.343Z,53.86
2023-01-01T09:14:07.313Z,53.88
2023-01-01T09:16:41.960Z,54.02
2023-01-01T09:19:12.287Z,53.99
2023-01-01T09:21:40.582Z,53.96
2023-01-01T09:24:08.733Z,54.00
2023-01-01T09:26:36.738Z,54.09
2023-01-01T09:29:04.630Z,54.06
2023-01-01T09:31:32.623Z,54.02
2023-01-01T09:34:00.589Z,54.08
2023-01-01T09:36:32.647Z,53.96
2023-01-01T09:39:02.390Z,53.99
2023-01-01T09:41:51.521Z,53.81
2023-01-01T09:44:44.010Z,53.78
2023-01-01T09:47:38.153Z,53.87
2023-01-01T09:50:23.878Z,53.83
2023-01-01T09:53:18.153Z,53.78
2023-01-01T09:55:58.239Z,53.92
2023-01-01T09:58:36.971Z,53.96
2023-01-01T10:01:33.830Z,53.95
2023-01-01T10:04:43.324Z,53.87
2023-01-01T10:07:38.050Z,53.71
2023-01-01T10:10:41.435Z,53.77
2023-01-01T10:13:24.761Z,53.66
2023-01-01T10:16:05.216Z,53.66
2023-01-01T10:18:38.296Z,53.73
2023-01-01T10:21:30.353Z,53.83
2023-01-01T10:24:19.231Z,53.73
2023-01-01T10:26:49.039Z,53.97
2023-01-01T10:29:26.031Z,53.89
2023-01-01T10:31:56.945Z,53.96
2023-01-01T10:34:30.709Z,54.05
2023-01-01T10:37:00.782Z,54.00
2023-01-01T10:39:29.091Z,54.04
2023-01-01T10:41:58.130Z,54.27
2023-01-01T10:44:32.468Z,54.31
2023-01-01T10:47:23.252Z,54.37
2023-01-01T10:50:07.401Z,54.30
2023-01-01T10:52:40.583Z,54.36
2023-01-01T10:55:25.673Z,54.40
2023-01-01T10:57:54.141Z,54.40
2023-01-01T11:00:27.994Z,54.54
2023-01-01T11:03:19.473Z,54.61
2023-01-01T11:06:34.579Z,54.57
2023-01-01T11:09:21.261Z,54.74
2023-01-01T11:12:19.120Z,54.72
2023-01-01T11:14:58.403Z,54.94
2023-01-01T11:17:30.052Z,54.79
2023-01-01T11:20:02.183Z,54.73
2023-01-01T11:22:41.303Z,54.57
2023-01-01T11:25:30.190Z,54.53
2023-01-01T11:28:21.928Z,54.54
2023-01-01T11:31:20.833Z,54.48
2023-01-01T11:33:57.204Z,54.56
2023-01-01T11:36:32.913Z,54.42
2023-01-01T11:39:26.613Z,54.51
2023-01-01T11:41:58.196Z,54.50
2023-01-01T11:44:44.671Z,54.57
2023-01-01T11:47:40.811Z,54.47
2023-01-01T11:50:14.550Z,54.47
2023-01-01T11:52:46.752Z,54.30
2023-01-01T11:55:32.336Z,54.75
2023-01-01T11:58:40.045Z,54.71
2023-01-01T12:01:36.981Z,54.44
2023-01-01T12:04:13.232Z,54.58
2023-01-01T12:06:57.200Z,54.79
2023-01-01T12:09:47.602Z,54.79
2023-01-01T12:12:35.666Z,54.78
2023-01-01T12:15:31.544Z,54.92
2023-01-01T12:18:06.358Z,54.97
2023-01-01T12:20:49.613Z,55.10
2023-01-01T12:23:19.166Z,55.07
2023-01-01T12:26:16.389Z,55.23
2023-01-01T12:29:36.306Z,55.50
2023-01-01T12:32:13.368Z,55.52
2023-01-01T12:35:23.413Z,55.56
2023-01-01T12:38:21.982Z,55.62
2023-01-01T12:41:14.652Z,55.60
2023-01-01T12:44:16.565Z,55.58
2023-01-01T12:46:49.807Z,55.43
2023-01-01T12:49:33.295Z,55.67
2023-01-01T12:52:27.486Z,55.57
2023-01-01T12:55:32.205Z,55.53
2023-01-01T12:58:15.602Z,55.57
2023-01-01T13:01:00.369Z,55.66
2023-01-01T13:03:39.489Z,55.84
2023-01-01T13:06:11.835Z,55.87
2023-01-01T13:08:41.864Z,56.01
2023-01-01T13:11:10.926Z,56.23
2023-01-01T13:13:39.137Z,56.31
2023-01-01T13:16:12.535Z,56.51
2023-01-01T13:18:40.518Z,56.69
2023-01-01T13:21:17.592Z,56.89
2023-01-01T13:23:48.224Z,57.12
2023-01-01T13:26:22.863Z,57.34
2023-01-01T13:28:57.280Z,57.39
2023-01-01T13:31:41.099Z,57.40
2023-01-01T13:34:30.858Z,57.68
2023-01-01T13:37:11.224Z,57.81
2023-01-01T13:40:01.478Z,57.99
2023-01-01T13:42:58.998Z,58.14
2023-01-01T13:48:57.592Z,58.23
2023-01-01T13:52:06.337Z,58.48
2023-01-01T13:55:28.253Z,58.62
2023-01-01T13:58:16.155Z,58.71
2023-01-01T14:01:23.490Z,58.99
2023-01-01T14:03:56.167Z,59.08
2023-01-01T14:06:35.492Z,59.16
2023-01-01T14:09:12.219Z,59.47
2023-01-01T14:11:41.042Z,59.62
2023-01-01T14:14:29.458Z,59.82
2023-01-01T14:17:05.607Z,59.82
2023-01-01T14:19:34.404Z,59.82
2023-01-01T14:22:07.353Z,60.09
2023-01-01T14:24:43.103Z,60.31
2023-01-01T14:27:20.073Z,60.56
2023-01-01T14:29:51.320Z,60.71
2023-01-01T14:32:24.638Z,60.88
2023-01-01T14:35:02.360Z,60.97
2023-01-01T14:37:30.394Z,61.20
2023-01-01T14:40:08.366Z,61.25
2023-01-01T14:42:37.177Z,61.33
2023-01-01T14:45:06.029Z,61.46
2023-01-01T14:47:36.203Z,61.82
2023-01-01T14:50:22.746Z,61.94
2023-01-01T14:53:20.430Z,62.13
2023-01-01T14:55:49.915Z,62.55
2023-01-01T14:58:24.959Z,62.72
2023-01-01T15:00:53.584Z,63.07
2023-01-01T15:03:23.402Z,63.21
2023-01-01T15:06:02.965Z,63.41
2023-01-01T15:08:30.904Z,63.83
2023-01-01T15:10:58.880Z,64.43
2023-01-01T15:13:28.415Z,64.35
2023-01-01T15:16:15.765Z,64.49
2023-01-01T15:18:46.396Z,64.59
2023-01-01T15:21:37.275Z,64.71
2023-01-01T15:24:17.623Z,64.80
2023-01-01T15:27:06.914Z,65.04
2023-01-01T15:29:47.380Z,65.14
2023-01-01T15:32:23.061Z,65.38
2023-01-01T15:34:55.293Z,65.55
2023-01-01T15:37:35.986Z,65.75
2023-01-01T15:40:13.201Z,65.75
2023-01-01T15:42:54.508Z,65.82
2023-01-01T15:45:31.319Z,65.81
2023-01-01T15:48:05.362Z,65.97
2023-01-01T15:51:00.714Z,65.88
2023-01-01T15:53:35.795Z,65.96
2023-01-01T15:56:14.962Z,66.11
2023-01-01T15:59:09.477Z,66.29
2023-01-01T16:01:41.080Z,66.41
2023-01-01T16:04:29.347Z,66.50
2023-01-01T16:06:58.811Z,66.69
2023-01-01T16:09:27.264Z,66.69
2023-01-01T16:11:57.370Z,66.76
2023-01-01T16:14:25.693Z,66.77
2023-01-01T16:17:00.701Z,66.81
2023-01-01T16:19:33.006Z,66.71
2023-01-01T16:22:02.737Z,66.73
2023-01-01T16:24:32.761Z,66.76
2023-01-01T16:27:00.826Z,66.72
2023-01-01T16:29:30.873Z,66.66
2023-01-01T16:31:59.039Z,66.71
2023-01-01T16:34:27.022Z,66.68
2023-01-01T16:36:55.034Z,66.50
2023-01-01T16:39:23.171Z,66.51
2023-01-01T16:41:51.174Z,66.51
2023-01-01T16:44:19.258Z,66.44
2023-01-01T16:46:47.464Z,66.35
2023-01-01T16:49:15.460Z,66.43
2023-01-01T16:51:45.038Z,66.46
2023-01-01T16:54:13.761Z,66.58
2023-01-01T16:56:41.736Z,66.61
2023-01-01T16:59:09.802Z,66.69
2023-01-01T17:01:37.880Z,66.45
2023-01-01T17:04:06.517Z,66.36
2023-01-01T17:06:37.479Z,66.18
2023-01-01T17:09:05.666Z,66.24
2023-01-01T17:11:33.909Z,66.36
2023-01-01T17:14:02.612Z,66.46
2023-01-01T17:16:38.218Z,66.60
2023-01-01T17:19:16.121Z,66.73
2023-01-01T17:21:46.778Z,66.76
2023-01-01T17:24:17.669Z,66.84
2023-01-01T17:26:46.747Z,66.70
2023-01-01T17:29:14.708Z,66.55
2023-01-01T17:31:43.932Z,66.51
2023-01-01T17:34:14.274Z,66.50
2023-01-01T17:36:44.990Z,66.58
2023-01-01T17:39:15.308Z,66.64
2023-01-01T17:41:44.915Z,66.56
2023-01-01T17:44:13.092Z,66.52
2023-01-01T17:46:42.445Z,66.68
2023-01-01T17:49:10.376Z,66.68
2023-01-01T17:51:39.546Z,66.86
2023-01-01T17:54:13.333Z,67.05
2023-01-01T17:56:42.097Z,67.14
2023-01-01T17:59:10.402Z,67.22
2023-01-01T18:01:38.910Z,67.31
2023-01-01T18:04:09.732Z,67.49
2023-01-01T18:06:42.550Z,67.59
2023-01-01T18:09:16.976Z,67.77
2023-01-01T18:11:46.699Z,68.13
2023-01-01T18:14:18.458Z,67.82
2023-01-01T18:16:51.046Z,68.02
2023-01-01T18:19:19.856Z,68.47
2023-01-01T18:21:47.886Z,68.71
2023-01-01T18:24:17.130Z,68.76
2023-01-01T18:26:47.411Z,68.74
2023-01-01T18:29:15.904Z,68.95
2023-01-01T18:31:45.130Z,69.04
2023-01-01T18:34:13.089Z,69.23
2023-01-01T18:36:42.068Z,69.36
2023-01-01T18:39:16.036Z,69.49
2023-01-01T18:42:15.326Z,69.66
2023-01-01T18:44:43.519Z,69.71
2023-01-01T18:47:19.655Z,69.98
2023-01-01T18:49:51.903Z,69.80
2023-01-01T18:52:26.352Z,70.18
2023-01-01T18:55:09.598Z,69.81
2023-01-01T18:57:39.251Z,69.64
2023-01-01T19:00:31.586Z,69.40
2023-01-01T19:03:03.300Z,69.32
2023-01-01T19:05:36.021Z,69.32
2023-01-01T19:08:07.044Z,69.46
2023-01-01T19:10:51.720Z,69.42
2023-01-01T19:13:34.468Z,69.61
2023-01-01T19:16:11.393Z,69.94
2023-01-01T19:18:45.792Z,69.71
2023-01-01T19:21:14.499Z,69.79
2023-01-01T19:23:54.067Z,69.77
2023-01-01T19:26:36.039Z,69.85
2023-01-01T19:29:23.667Z,69.95
2023-01-01T19:31:57.667Z,70.04
2023-01-01T19:34:26.003Z,70.18
2023-01-01T19:36:57.341Z,70.49
2023-01-01T19:39:26.056Z,70.49
2023-01-01T19:42:03.813Z,70.59
2023-01-01T19:44:33.683Z,70.63
2023-01-01T19:47:04.732Z,70.66
2023-01-01T19:49:33.086Z,71.08
2023-01-01T19:52:01.045Z,70.80
2023-01-01T19:54:29.125Z,70.84
2023-01-01T19:56:57.180Z,70.51
2023-01-01T19:59:32.852Z,70.41
2023-01-01T20:04:53.347Z,70.25
2023-01-01T20:07:25.571Z,70.11
2023-01-01T20:09:57.132Z,69.92
2023-01-01T20:12:27.651Z,69.97
2023-01-01T20:14:56.221Z,69.97
2023-01-01T20:17:24.190Z,70.03
2023-01-01T20:19:54.123Z,69.92
2023-01-01T20:22:22.763Z,69.79
2023-01-01T20:24:51.074Z,69.84
2023-01-01T20:27:24.573Z,69.94
2023-01-01T20:29:54.256Z,70.19
2023-01-01T20:32:22.327Z,70.25
2023-01-01T20:34:51.165Z,70.34
2023-01-01T20:37:38.719Z,70.38
2023-01-01T20:40:10.991Z,70.41
2023-01-01T20:42:38.915Z,70.55
2023-01-01T20:45:08.321Z,70.54
2023-01-01T20:47:36.864Z,70.28
2023-01-01T20:50:05.248Z,70.40
2023-01-01T20:52:33.139Z,70.50
2023-01-01T20:55:01.169Z,70.54
2023-01-01T20:57:29.080Z,70.58
2023-01-01T20:59:56.962Z,70.60
2023-01-01T21:02:25.134Z,70.47
2023-01-01T21:04:53.148Z,70.53
2023-01-01T21:07:21.010Z,70.48
2023-01-01T21:09:48.936Z,70.49
2023-01-01T21:12:16.868Z,70.48
2023-01-01T21:14:45.469Z,70.44
2023-01-01T21:17:23.411Z,70.38
2023-01-01T21:19:56.584Z,70.31
2023-01-01T21:22:24.669Z,70.30
2023-01-01T21:24:54.753Z,70.28
2023-01-01T21:27:33.315Z,70.35
2023-01-01T21:30:01.425Z,70.24
2023-01-01T21:32:43.900Z,70.32
2023-01-01T21:35:41.448Z,70.38
2023-01-01T21:38:21.398Z,70.07
2023-01-01T21:41:00.528Z,70.22
2023-01-01T21:43:31.407Z,70.30
2023-01-01T21:46:23.355Z,70.19
2023-01-01T21:49:26.912Z,70.29
2023-01-01T21:51:58.828Z,70.22
2023-01-01T21:54:38.211Z,70.18
2023-01-01T21:57:24.797Z,70.08
2023-01-01T21:59:54.267Z,70.17
2023-01-01T22:02:34.920Z,70.04
2023-01-01T22:05:29.679Z,70.03
2023-01-01T22:07:59.147Z,70.06
2023-01-01T22:10:36.862Z,70.14
2023-01-01T22:13:16.746Z,70.19
2023-01-01T22:15:46.377Z,70.24
2023-01-01T22:18:28.372Z,70.31
2023-01-01T22:20:58.173Z,70.78
2023-01-01T22:23:39.975Z,70.54
2023-01-01T22:26:18.418Z,70.33
2023-01-01T22:28:50.361Z,70.20
2023-01-01T22:31:24.771Z,70.07
2023-01-01T22:33:55.290Z,70.00
2023-01-01T22:36:27.768Z,70.00
2023-01-01T22:39:03.448Z,70.11
2023-01-01T22:41:31.498Z,70.13
2023-01-01T22:44:04.199Z,70.30
2023-01-01T22:46:38.972Z,70.81
2023-01-01T22:49:23.323Z,71.07
2023-01-01T22:51:54.774Z,71.35
2023-01-01T22:54:23.782Z,71.69
2023-01-01T22:56:51.850Z,71.97
2023-01-01T22:59:19.849Z,72.06
2023-01-01T23:01:47.814Z,72.21
2023-01-01T23:04:16.207Z,72.22
2023-01-01T23:06:44.278Z,72.60
2023-01-01T23:09:12.781Z,72.99
2023-01-01T23:11:40.764Z,73.38
2023-01-01T23:14:28.057Z,73.44
2023-01-01T23:16:56.117Z,73.36
2023-01-01T23:19:24.047Z,73.69
2023-01-01T23:21:52.079Z,73.46
2023-01-01T23:24:22.350Z,73.48
2023-01-01T23:26:51.286Z,73.56
2023-01-01T23:29:21.667Z,73.74
2023-01-01T23:31:49.945Z,74.14
2023-01-01T23:34:18.201Z,74.24
2023-01-01T23:36:46.291Z,74.18
2023-01-01T23:39:14.408Z,74.17
2023-01-01T23:41:42.348Z,74.64
2023-01-01T23:44:10.277Z,74.77
2023-01-01T23:46:39.131Z,74.93
2023-01-01T23:49:07.774Z,75.05
2023-01-01T23:51:37.777Z,75.02
2023-01-01T23:54:06.040Z,75.35
2023-01-01T23:56:34.117Z,75.70
2023-01-01T23:59:02.206Z,75.53
